createdAt,value
2019-04-14T00:01:56.609Z,28.17
2019-04-14T00:04:40.659Z,28.85
2019-04-14T00:07:10.198Z,28.77
2019-04-14T00:09:40.105Z,27.30
2019-04-14T00:12:12.072Z,29.50
2019-04-14T00:14:42.508Z,27.27
2019-04-14T00:17:12.990Z,29.63
2019-04-14T00:19:43.429Z,27.65
2019-04-14T00:22:14.109Z,26.80
2019-04-14T00:24:44.585Z,29.45
2019-04-14T00:27:14.975Z,27.10
2019-04-14T00:29:45.677Z,29.25
2019-04-14T00:32:16.147Z,27.35
2019-04-14T00:34:55.613Z,28.50
2019-04-14T00:37:44.460Z,28.73
2019-04-14T00:40:21.564Z,27.27
2019-04-14T00:43:22.083Z,27.07
2019-04-14T00:46:00.542Z,26.48
2019-04-14T00:48:30.222Z,27.70
2019-04-14T00:51:00.487Z,27.13
2019-04-14T00:53:30.059Z,26.80
2019-04-14T00:55:59.743Z,27.80
2019-04-14T00:58:29.978Z,25.82
2019-04-14T01:01:00.452Z,27.00
2019-04-14T01:03:30.943Z,27.75
2019-04-14T01:06:01.191Z,27.98
2019-04-14T01:08:31.431Z,27.82
2019-04-14T01:11:01.103Z,28.42
2019-04-14T01:13:31.093Z,26.60
2019-04-14T01:16:08.932Z,29.15
2019-04-14T01:18:34.068Z,28.65
2019-04-14T01:21:04.509Z,27.73
2019-04-14T01:23:34.801Z,27.27
2019-04-14T01:26:05.039Z,26.82
2019-04-14T01:28:35.437Z,27.17
2019-04-14T01:31:05.541Z,27.00
2019-04-14T01:33:35.827Z,26.82
2019-04-14T01:36:06.067Z,26.02
2019-04-14T01:38:36.455Z,26.62
2019-04-14T01:41:06.447Z,26.75
2019-04-14T01:43:36.469Z,26.42
2019-04-14T01:46:14.434Z,28.87
2019-04-14T01:48:36.777Z,40.73
2019-04-14T01:51:35.193Z,71.70
2019-04-14T01:54:23.426Z,53.92
2019-04-14T01:57:13.104Z,53.02
2019-04-14T01:59:43.774Z,46.28
2019-04-14T02:02:18.332Z,35.90
2019-04-14T02:04:48.537Z,27.60
2019-04-14T02:07:19.052Z,27.10
2019-04-14T02:09:48.929Z,29.23
2019-04-14T02:12:19.238Z,28.70
2019-04-14T02:14:49.483Z,32.75
2019-04-14T02:17:19.852Z,31.57
2019-04-14T02:19:50.289Z,28.40
2019-04-14T02:22:20.282Z,27.30
2019-04-14T02:24:50.303Z,29.42
2019-04-14T02:27:20.934Z,28.87
2019-04-14T02:29:51.537Z,29.18
2019-04-14T02:32:51.295Z,32.35
2019-04-14T02:35:20.973Z,30.75
2019-04-14T02:37:58.436Z,28.12
2019-04-14T02:43:04.065Z,28.27
2019-04-14T02:45:31.695Z,27.35
2019-04-14T02:48:14.867Z,27.80
2019-04-14T02:53:04.734Z,27.87
2019-04-14T02:55:23.490Z,30.25
2019-04-14T02:58:04.331Z,27.10
2019-04-14T03:00:31.737Z,29.45
2019-04-14T03:02:56.294Z,28.00
2019-04-14T03:05:34.280Z,28.45
2019-04-14T03:08:04.243Z,28.67
2019-04-14T03:10:33.901Z,29.50
2019-04-14T03:13:09.414Z,29.35
2019-04-14T03:21:03.531Z,29.42
2019-04-14T03:23:46.800Z,27.90
2019-04-14T03:26:13.850Z,29.77
2019-04-14T03:29:08.163Z,29.32
2019-04-14T03:31:55.937Z,30.25
2019-04-14T03:34:13.380Z,27.87
2019-04-14T03:37:04.804Z,31.62
2019-04-14T03:41:29.819Z,29.48
2019-04-14T03:43:54.454Z,28.52
2019-04-14T03:46:37.008Z,28.85
2019-04-14T03:49:07.359Z,32.08
2019-04-14T03:51:48.287Z,29.23
2019-04-14T03:53:58.701Z,30.52
2019-04-14T03:56:49.141Z,30.45
2019-04-14T03:59:19.639Z,31.93
2019-04-14T04:01:50.062Z,30.35
2019-04-14T04:04:20.422Z,30.17
2019-04-14T04:06:51.042Z,31.20
2019-04-14T04:09:23.473Z,30.48
2019-04-14T04:11:54.034Z,30.48
2019-04-14T04:14:24.518Z,30.25
2019-04-14T04:17:12.879Z,31.25
2019-04-14T04:20:00.004Z,32.08
2019-04-14T04:22:52.254Z,29.95
2019-04-14T04:25:40.682Z,30.90
2019-04-14T04:28:34.994Z,30.12
2019-04-14T04:31:29.184Z,30.57
2019-04-14T04:34:31.626Z,32.95
2019-04-14T04:37:06.097Z,31.20
2019-04-14T04:39:38.650Z,28.38
2019-04-14T04:42:09.197Z,29.87
2019-04-14T04:44:39.859Z,29.07
2019-04-14T04:47:09.931Z,32.45
2019-04-14T04:49:40.354Z,30.62
2019-04-14T04:52:11.392Z,29.32
2019-04-14T04:54:40.758Z,29.27
2019-04-14T04:57:11.204Z,31.87
2019-04-14T04:59:40.937Z,31.55
2019-04-14T05:02:11.251Z,32.03
2019-04-14T05:04:41.510Z,32.60
2019-04-14T05:07:10.802Z,31.07
2019-04-14T05:09:58.035Z,33.95
2019-04-14T05:12:39.025Z,34.30
2019-04-14T05:15:40.300Z,34.18
2019-04-14T05:18:15.874Z,34.03
2019-04-14T05:20:46.326Z,34.60
2019-04-14T05:23:16.970Z,33.88
2019-04-14T05:25:47.370Z,35.23
2019-04-14T05:28:17.846Z,35.88
2019-04-14T05:30:48.254Z,34.85
2019-04-14T05:33:18.536Z,33.83
2019-04-14T05:35:48.844Z,34.83
2019-04-14T05:38:19.062Z,36.63
2019-04-14T05:40:49.563Z,33.80
2019-04-14T05:43:31.282Z,38.48
2019-04-14T05:45:50.192Z,37.48
2019-04-14T05:48:20.381Z,36.83
2019-04-14T05:50:51.229Z,36.75
2019-04-14T05:53:21.757Z,35.10
2019-04-14T05:55:52.419Z,36.38
2019-04-14T05:58:23.084Z,36.08
2019-04-14T06:00:53.371Z,33.40
2019-04-14T06:03:23.488Z,35.25
2019-04-14T06:05:52.703Z,35.20
2019-04-14T06:08:21.890Z,36.48
2019-04-14T06:10:51.159Z,34.40
2019-04-14T06:13:20.597Z,36.60
2019-04-14T06:15:49.794Z,36.83
2019-04-14T06:18:18.971Z,36.20
2019-04-14T06:20:48.293Z,35.33
2019-04-14T06:23:17.557Z,34.98
2019-04-14T06:25:48.795Z,35.92
2019-04-14T06:28:18.206Z,34.60
2019-04-14T06:31:05.831Z,36.25
2019-04-14T06:33:54.020Z,35.45
2019-04-14T06:36:51.399Z,35.23
2019-04-14T06:39:23.989Z,35.15
2019-04-14T06:41:53.143Z,34.65
2019-04-14T06:44:22.438Z,34.65
2019-04-14T06:46:51.781Z,35.52
2019-04-14T06:49:21.089Z,34.25
2019-04-14T06:51:50.431Z,34.20
2019-04-14T06:54:19.783Z,34.95
2019-04-14T06:56:49.093Z,34.55
2019-04-14T06:59:18.456Z,34.27
2019-04-14T07:01:47.817Z,33.75
2019-04-14T07:04:17.071Z,33.55
2019-04-14T07:06:46.322Z,33.85
2019-04-14T07:09:15.688Z,31.15
2019-04-14T07:11:44.864Z,33.23
2019-04-14T07:14:14.435Z,31.07
2019-04-14T07:16:43.715Z,33.58
2019-04-14T07:19:12.987Z,32.42
2019-04-14T07:21:42.257Z,31.40
2019-04-14T07:24:11.503Z,32.48
2019-04-14T07:26:40.878Z,28.90
2019-04-14T07:29:10.043Z,28.32
2019-04-14T07:31:56.999Z,27.70
2019-04-14T07:34:57.321Z,27.73
2019-04-14T07:37:53.329Z,25.37
2019-04-14T07:40:41.940Z,27.55
2019-04-14T07:43:16.897Z,27.17
2019-04-14T07:45:56.953Z,27.17
2019-04-14T07:48:55.186Z,27.55
2019-04-14T07:51:31.570Z,27.55
2019-04-14T07:54:04.843Z,27.48
2019-04-14T07:57:01.990Z,27.13
2019-04-14T07:59:42.356Z,27.93
2019-04-14T08:02:21.067Z,26.68
2019-04-14T08:04:58.550Z,23.98
2019-04-14T08:07:28.011Z,26.33
2019-04-14T08:09:57.269Z,24.70
2019-04-14T08:12:27.785Z,24.72
2019-04-14T08:14:59.994Z,25.15
2019-04-14T08:17:29.239Z,25.50
2019-04-14T08:19:58.450Z,23.80
2019-04-14T08:22:27.643Z,23.98
2019-04-14T08:24:56.926Z,24.12
2019-04-14T08:27:26.187Z,23.73
2019-04-14T08:29:55.554Z,23.65
2019-04-14T08:32:24.781Z,24.12
2019-04-14T08:34:54.041Z,25.55
2019-04-14T08:37:23.350Z,25.02
2019-04-14T08:39:52.497Z,21.65
2019-04-14T08:42:40.719Z,23.85
2019-04-14T08:45:18.929Z,23.07
2019-04-14T08:47:57.588Z,22.45
2019-04-14T08:51:01.011Z,21.68
2019-04-14T08:53:42.419Z,22.32
2019-04-14T08:56:35.363Z,25.08
2019-04-14T08:59:25.796Z,24.00
2019-04-14T09:02:17.046Z,24.30
2019-04-14T09:05:08.097Z,23.77
2019-04-14T09:08:03.971Z,21.45
2019-04-14T09:10:36.872Z,21.90
2019-04-14T09:13:06.166Z,21.05
2019-04-14T09:15:35.474Z,22.55
2019-04-14T09:18:04.884Z,21.20
2019-04-14T09:20:34.107Z,22.30
2019-04-14T09:23:03.455Z,20.10
2019-04-14T09:25:32.671Z,21.60
2019-04-14T09:28:02.457Z,20.77
2019-04-14T09:33:41.042Z,19.57
2019-04-14T09:36:10.219Z,22.27
2019-04-14T09:38:39.671Z,22.30
2019-04-14T09:41:08.871Z,21.53
2019-04-14T09:43:38.167Z,21.20
2019-04-14T09:46:07.394Z,21.63
2019-04-14T09:48:36.889Z,21.00
2019-04-14T09:51:06.259Z,21.10
2019-04-14T09:53:35.470Z,21.03
2019-04-14T09:56:04.768Z,21.40
2019-04-14T09:58:34.057Z,20.80
2019-04-14T10:01:03.275Z,20.67
2019-04-14T10:03:32.459Z,20.67
2019-04-14T10:06:01.770Z,21.13
2019-04-14T10:08:31.029Z,20.93
2019-04-14T10:11:02.273Z,20.40
2019-04-14T10:13:31.663Z,21.07
2019-04-14T10:16:02.474Z,20.83
2019-04-14T10:18:31.913Z,19.77
2019-04-14T10:21:01.290Z,20.83
2019-04-14T10:23:30.614Z,20.63
2019-04-14T10:25:59.862Z,21.30
2019-04-14T10:28:30.290Z,20.33
2019-04-14T10:30:59.495Z,19.90
2019-04-14T10:33:28.691Z,22.10
2019-04-14T10:35:58.096Z,20.73
2019-04-14T10:38:27.282Z,17.70
2019-04-14T10:40:56.494Z,17.50
2019-04-14T10:43:26.031Z,17.90
2019-04-14T10:45:57.531Z,18.00
2019-04-14T10:48:26.337Z,17.43
2019-04-14T10:50:55.719Z,17.20
2019-04-14T10:53:25.026Z,17.17
2019-04-14T10:55:54.450Z,18.40
2019-04-14T10:58:23.643Z,17.27
2019-04-14T11:00:52.875Z,17.83
2019-04-14T11:03:22.262Z,16.90
2019-04-14T11:06:05.900Z,17.23
2019-04-14T11:08:35.288Z,17.13
2019-04-14T11:11:04.686Z,17.80
2019-04-14T11:13:34.045Z,17.47
2019-04-14T11:16:03.378Z,17.67
2019-04-14T11:18:32.676Z,17.30
2019-04-14T11:21:04.244Z,17.17
2019-04-14T11:23:33.605Z,15.97
2019-04-14T11:26:02.810Z,17.60
2019-04-14T11:28:32.232Z,17.50
2019-04-14T11:31:01.684Z,16.03
2019-04-14T11:33:37.315Z,15.20
2019-04-14T11:36:34.456Z,16.00
2019-04-14T11:39:13.476Z,17.00
2019-04-14T11:41:44.649Z,16.10
2019-04-14T11:44:18.164Z,17.00
2019-04-14T11:46:47.550Z,17.07
2019-04-14T11:49:18.966Z,15.90
2019-04-14T11:51:55.213Z,18.37
2019-04-14T11:54:21.998Z,16.80
2019-04-14T11:56:51.835Z,17.50
2019-04-14T11:59:30.167Z,17.10
2019-04-14T12:02:04.991Z,17.17
2019-04-14T12:04:39.423Z,16.40
2019-04-14T12:07:27.832Z,16.07
2019-04-14T12:10:06.455Z,15.90
2019-04-14T12:12:35.860Z,16.15
2019-04-14T12:15:08.164Z,16.50
2019-04-14T12:17:39.078Z,16.70
2019-04-14T12:20:10.509Z,16.73
2019-04-14T12:22:39.864Z,17.55
2019-04-14T12:25:10.252Z,15.80
2019-04-14T12:27:39.807Z,16.33
2019-04-14T12:30:13.548Z,15.17
2019-04-14T12:32:43.234Z,15.80
2019-04-14T12:35:13.306Z,15.78
2019-04-14T12:37:43.492Z,15.48
2019-04-14T12:40:15.014Z,15.40
2019-04-14T12:43:02.109Z,14.70
2019-04-14T12:45:50.464Z,15.50
2019-04-14T12:48:35.233Z,14.00
2019-04-14T12:51:30.230Z,15.63
2019-04-14T12:54:21.292Z,15.65
2019-04-14T12:56:51.517Z,14.60
2019-04-14T12:59:23.294Z,14.53
2019-04-14T13:02:11.320Z,13.70
2019-04-14T13:04:41.392Z,13.98
2019-04-14T13:07:10.734Z,15.15
2019-04-14T13:09:40.079Z,14.58
2019-04-14T13:12:10.853Z,15.63
2019-04-14T13:14:41.358Z,15.30
2019-04-14T13:17:10.775Z,16.53
2019-04-14T13:19:40.868Z,16.40
2019-04-14T13:22:10.377Z,16.45
2019-04-14T13:24:39.958Z,16.15
2019-04-14T13:27:09.433Z,16.93
2019-04-14T13:29:38.871Z,16.20
2019-04-14T13:32:09.629Z,17.02
2019-04-14T13:34:39.052Z,17.35
2019-04-14T13:37:09.686Z,17.62
2019-04-14T13:39:39.522Z,16.60
2019-04-14T13:42:30.293Z,16.77
2019-04-14T13:45:23.540Z,16.85
2019-04-14T13:47:52.837Z,16.23
2019-04-14T13:50:23.454Z,17.10
2019-04-14T13:52:55.925Z,18.23
2019-04-14T13:55:25.322Z,17.50
2019-04-14T13:57:54.966Z,17.55
2019-04-14T14:00:25.256Z,17.87
2019-04-14T14:02:57.078Z,17.25
2019-04-14T14:05:26.808Z,15.93
2019-04-14T14:07:56.191Z,17.42
2019-04-14T14:10:25.402Z,15.98
2019-04-14T14:13:19.598Z,16.20
2019-04-14T14:16:12.490Z,15.63
2019-04-14T14:18:50.572Z,16.50
2019-04-14T14:21:37.978Z,15.60
2019-04-14T14:24:25.065Z,15.25
2019-04-14T14:26:56.237Z,16.20
2019-04-14T14:29:29.189Z,15.75
2019-04-14T14:32:02.251Z,17.45
2019-04-14T14:34:32.591Z,15.23
2019-04-14T14:37:13.063Z,15.93
2019-04-14T14:39:43.411Z,18.20
2019-04-14T14:42:12.729Z,17.42
2019-04-14T14:44:47.060Z,16.23
2019-04-14T14:47:25.419Z,16.30
2019-04-14T14:50:12.982Z,15.10
2019-04-14T14:52:42.179Z,16.45
2019-04-14T14:55:11.603Z,17.73
2019-04-14T14:57:40.849Z,17.02
2019-04-14T15:00:30.255Z,15.83
2019-04-14T15:02:59.600Z,17.35
2019-04-14T15:05:28.978Z,16.52
2019-04-14T15:07:58.262Z,17.60
2019-04-14T15:10:27.545Z,16.60
2019-04-14T15:13:01.621Z,17.40
2019-04-14T15:15:30.919Z,16.77
2019-04-14T15:18:00.134Z,16.52
2019-04-14T15:20:29.450Z,16.07
2019-04-14T15:22:58.820Z,16.77
2019-04-14T15:25:28.175Z,16.32
2019-04-14T15:27:57.596Z,16.80
2019-04-14T15:30:26.811Z,18.20
2019-04-14T15:32:56.002Z,16.45
2019-04-14T15:35:25.278Z,16.42
2019-04-14T15:37:54.513Z,16.67
2019-04-14T15:40:23.681Z,16.35
2019-04-14T15:42:52.961Z,16.85
2019-04-14T15:45:22.221Z,17.05
2019-04-14T15:47:51.583Z,17.52
2019-04-14T15:50:20.777Z,16.93
2019-04-14T15:52:50.037Z,17.10
2019-04-14T15:55:19.648Z,17.30
2019-04-14T15:58:07.953Z,16.20
2019-04-14T16:01:02.173Z,17.50
2019-04-14T16:03:42.972Z,14.90
2019-04-14T16:06:49.323Z,15.80
2019-04-14T16:09:37.581Z,16.25
2019-04-14T16:12:18.421Z,15.98
2019-04-14T16:15:12.888Z,16.55
2019-04-14T16:17:52.116Z,16.90
2019-04-14T16:20:30.694Z,16.52
2019-04-14T16:22:59.910Z,16.25
2019-04-14T16:25:51.001Z,16.48
2019-04-14T16:28:34.110Z,16.93
2019-04-14T16:31:25.011Z,15.75
2019-04-14T16:34:02.346Z,17.60
2019-04-14T16:36:31.659Z,16.07
2019-04-14T16:39:00.928Z,16.42
2019-04-14T16:41:30.171Z,17.02
2019-04-14T16:43:59.382Z,16.25
2019-04-14T16:46:28.766Z,16.10
2019-04-14T16:48:58.141Z,17.50
2019-04-14T16:51:32.117Z,17.02
2019-04-14T16:54:06.187Z,17.55
2019-04-14T16:56:54.900Z,17.12
2019-04-14T16:59:24.205Z,17.10
2019-04-14T17:02:11.201Z,17.12
2019-04-14T17:04:40.191Z,16.87
2019-04-14T17:07:11.683Z,16.75
2019-04-14T17:09:43.733Z,16.85
2019-04-14T17:12:13.127Z,16.40
2019-04-14T17:14:49.665Z,16.77
2019-04-14T17:17:34.982Z,16.30
2019-04-14T17:20:35.555Z,16.40
2019-04-14T17:23:26.843Z,17.07
2019-04-14T17:26:24.183Z,16.23
2019-04-14T17:29:02.982Z,18.02
2019-04-14T17:34:54.756Z,17.07
2019-04-14T17:37:42.625Z,17.70
2019-04-14T17:40:28.004Z,16.35
2019-04-14T17:43:41.911Z,14.70
2019-04-14T17:46:30.002Z,15.53
2019-04-14T17:49:16.797Z,15.45
2019-04-14T17:52:11.077Z,17.23
2019-04-14T17:55:19.860Z,15.45
2019-04-14T17:58:00.592Z,14.98
2019-04-14T18:00:54.190Z,13.80
2019-04-14T18:04:01.789Z,13.90
2019-04-14T18:06:50.103Z,13.48
2019-04-14T18:09:41.679Z,13.08
2019-04-14T18:12:33.991Z,14.13
2019-04-14T18:15:31.157Z,14.18
2019-04-14T18:18:26.455Z,14.70
2019-04-14T18:20:58.982Z,17.27
2019-04-14T18:23:29.766Z,18.32
2019-04-14T18:25:59.879Z,18.85
2019-04-14T18:28:52.416Z,17.35
2019-04-14T18:31:41.073Z,15.90
2019-04-14T18:34:44.655Z,16.40
2019-04-14T18:37:40.599Z,16.93
2019-04-14T18:40:31.887Z,17.70
2019-04-14T18:43:18.708Z,16.70
2019-04-14T18:45:57.668Z,18.57
2019-04-14T18:48:40.919Z,22.17
2019-04-14T18:51:32.402Z,22.17
2019-04-14T18:54:27.174Z,18.10
2019-04-14T18:57:18.296Z,17.15
2019-04-14T19:00:15.433Z,17.00
2019-04-14T19:02:44.753Z,21.05
2019-04-14T19:05:14.047Z,21.55
2019-04-14T19:07:43.663Z,19.07
2019-04-14T19:10:13.071Z,20.43
2019-04-14T19:12:56.647Z,17.30
2019-04-14T19:15:48.237Z,17.77
2019-04-14T19:18:26.876Z,16.30
2019-04-14T19:21:04.593Z,16.77
2019-04-14T19:23:34.979Z,21.40
2019-04-14T19:26:09.106Z,18.42
2019-04-14T19:28:38.888Z,17.35
2019-04-14T19:31:08.213Z,20.52
2019-04-14T19:33:37.399Z,20.50
2019-04-14T19:36:06.801Z,16.60
2019-04-14T19:38:36.115Z,17.07
2019-04-14T19:41:06.911Z,19.45
2019-04-14T19:43:36.977Z,17.05
2019-04-14T19:46:07.265Z,15.43
2019-04-14T19:48:36.606Z,15.23
2019-04-14T19:51:06.959Z,14.95
2019-04-14T19:53:36.186Z,15.45
2019-04-14T19:56:05.533Z,13.40
2019-04-14T19:58:35.006Z,13.45
2019-04-14T20:01:07.082Z,17.37
2019-04-14T20:03:36.557Z,14.03
2019-04-14T20:06:06.506Z,12.20
2019-04-14T20:08:36.274Z,13.20
2019-04-14T20:11:05.898Z,12.68
2019-04-14T20:13:40.365Z,12.70
2019-04-14T20:16:31.790Z,12.15
2019-04-14T20:19:21.153Z,13.25
2019-04-14T20:22:15.593Z,12.68
2019-04-14T20:24:50.545Z,11.55
2019-04-14T20:27:36.979Z,10.85
2019-04-14T20:30:11.402Z,12.30
2019-04-14T20:32:42.057Z,13.13
2019-04-14T20:35:12.097Z,11.97
2019-04-14T20:37:42.071Z,11.45
2019-04-14T20:40:15.189Z,12.10
2019-04-14T20:42:44.999Z,12.78
2019-04-14T20:45:15.773Z,11.97
2019-04-14T20:47:45.046Z,13.55
2019-04-14T20:50:14.932Z,13.90
2019-04-14T20:52:44.334Z,12.20
2019-04-14T20:55:13.844Z,12.90
2019-04-14T20:57:43.317Z,12.68
2019-04-14T21:00:13.820Z,14.83
2019-04-14T21:03:07.900Z,13.90
2019-04-14T21:06:08.558Z,13.48
2019-04-14T21:08:55.520Z,13.83
2019-04-14T21:11:31.337Z,13.55
2019-04-14T21:14:27.036Z,14.20
2019-04-14T21:17:13.402Z,13.30
2019-04-14T21:20:04.301Z,12.33
2019-04-14T21:22:37.130Z,12.30
2019-04-14T21:25:34.325Z,14.75
2019-04-14T21:28:12.654Z,13.00
2019-04-14T21:31:03.766Z,14.18
2019-04-14T21:33:51.904Z,13.50
2019-04-14T21:36:29.158Z,13.88
2019-04-14T21:39:19.710Z,13.78
2019-04-14T21:41:50.519Z,14.55
2019-04-14T21:44:20.040Z,14.63
2019-04-14T21:46:49.457Z,13.55
2019-04-14T21:49:20.874Z,13.32
2019-04-14T21:52:15.564Z,13.80
2019-04-14T21:54:50.040Z,13.72
2019-04-14T21:57:47.352Z,13.85
2019-04-14T22:00:34.509Z,13.15
2019-04-14T22:03:19.780Z,13.00
2019-04-14T22:06:02.227Z,12.70
2019-04-14T22:08:36.514Z,13.08
2019-04-14T22:11:08.315Z,13.35
2019-04-14T22:13:37.526Z,11.63
2019-04-14T22:16:07.442Z,11.22
2019-04-14T22:18:36.848Z,11.88
2019-04-14T22:21:06.278Z,12.10
2019-04-14T22:23:35.745Z,13.65
2019-04-14T22:26:05.835Z,13.10
2019-04-14T22:28:35.153Z,14.78
2019-04-14T22:31:04.451Z,13.28
2019-04-14T22:33:33.707Z,12.73
2019-04-14T22:36:03.439Z,13.60
2019-04-14T22:38:32.652Z,10.90
2019-04-14T22:41:01.981Z,11.60
2019-04-14T22:43:31.198Z,11.35
2019-04-14T22:46:00.513Z,12.63
2019-04-14T22:48:29.701Z,10.68
2019-04-14T22:50:58.886Z,9.98
2019-04-14T22:53:28.064Z,11.03
2019-04-14T22:55:57.311Z,10.38
2019-04-14T22:58:26.546Z,10.60
2019-04-14T23:01:07.173Z,10.82
2019-04-14T23:03:54.033Z,11.33
2019-04-14T23:06:46.733Z,9.23
2019-04-14T23:09:47.175Z,8.73
2019-04-14T23:12:30.009Z,9.80
2019-04-14T23:15:24.176Z,10.20
2019-04-14T23:18:18.417Z,9.75
2019-04-14T23:20:59.360Z,10.85
2019-04-14T23:23:37.077Z,9.45
2019-04-14T23:26:06.354Z,9.83
2019-04-14T23:28:35.616Z,9.43
2019-04-14T23:31:04.937Z,9.58
2019-04-14T23:33:34.180Z,10.23
2019-04-14T23:36:03.457Z,8.80
2019-04-14T23:38:32.707Z,8.10
2019-04-14T23:41:02.006Z,9.58
2019-04-14T23:43:31.285Z,9.50
2019-04-14T23:46:00.453Z,9.05
2019-04-14T23:48:29.725Z,10.15
2019-04-14T23:50:59.003Z,10.10
2019-04-14T23:53:28.298Z,11.03
2019-04-14T23:55:57.598Z,8.98
2019-04-14T23:58:25.930Z,9.70
